createdAt,value
2022-11-30T00:00:32.582Z,100730.72
2022-11-30T00:03:34.246Z,100734.06
2022-11-30T00:06:41.344Z,100738.94
2022-11-30T00:09:42.991Z,100735.75
2022-11-30T00:12:44.818Z,100737.41
2022-11-30T00:15:46.476Z,100730.72
2022-11-30T00:18:48.340Z,100733.66
2022-11-30T00:21:51.416Z,100734.28
2022-11-30T00:24:52.996Z,100729.81
2022-11-30T00:27:54.768Z,100726.28
2022-11-30T00:31:00.223Z,100727.59
2022-11-30T00:34:01.942Z,100713.41
2022-11-30T00:37:04.981Z,100715.84
2022-11-30T00:40:07.536Z,100712.28
2022-11-30T00:43:09.132Z,100716.75
2022-11-30T00:46:11.952Z,100720.44
2022-11-30T00:49:13.722Z,100731.06
2022-11-30T00:52:16.705Z,100726.22
2022-11-30T00:55:18.580Z,100728.03
2022-11-30T00:58:20.294Z,100733.25
2022-11-30T01:01:22.091Z,100735.31
2022-11-30T01:04:23.866Z,100731.22
2022-11-30T01:07:27.058Z,100733.84
2022-11-30T01:10:28.908Z,100737.34
2022-11-30T01:13:30.551Z,100744.22
2022-11-30T01:16:33.986Z,100747.91
2022-11-30T01:19:35.665Z,100747.00
2022-11-30T01:22:38.720Z,100753.53
2022-11-30T01:25:40.469Z,100754.66
2022-11-30T01:28:44.257Z,100753.94
2022-11-30T01:31:45.890Z,100742.16
2022-11-30T01:34:47.897Z,100738.59
2022-11-30T01:37:51.007Z,100737.13
2022-11-30T01:40:52.685Z,100744.53
2022-11-30T01:43:56.401Z,100748.06
2022-11-30T01:47:00.898Z,100746.25
2022-11-30T01:50:05.699Z,100742.34
2022-11-30T01:53:10.816Z,100745.69
2022-11-30T01:56:13.331Z,100738.03
2022-11-30T01:59:16.987Z,100737.84
2022-11-30T02:02:24.452Z,100746.03
2022-11-30T02:05:26.957Z,100742.84
2022-11-30T02:08:31.661Z,100749.72
2022-11-30T02:11:33.794Z,100748.22
2022-11-30T02:14:40.755Z,100748.78
2022-11-30T02:17:51.750Z,100748.28
2022-11-30T02:21:04.842Z,100745.84
2022-11-30T02:24:23.282Z,100748.31
2022-11-30T02:27:43.737Z,100742.69
2022-11-30T02:30:52.274Z,100741.03
2022-11-30T02:33:56.803Z,100742.56
2022-11-30T02:37:01.099Z,100746.28
2022-11-30T02:40:08.316Z,100754.16
2022-11-30T02:43:10.166Z,100750.22
2022-11-30T02:46:18.142Z,100744.94
2022-11-30T02:49:28.674Z,100746.81
2022-11-30T02:52:32.061Z,100747.91
2022-11-30T02:55:33.978Z,100751.06
2022-11-30T02:58:35.869Z,100748.78
2022-11-30T03:01:40.118Z,100749.53
2022-11-30T03:04:41.824Z,100748.13
2022-11-30T03:07:43.608Z,100747.97
2022-11-30T03:10:45.253Z,100740.94
2022-11-30T03:13:46.879Z,100749.69
2022-11-30T03:16:49.932Z,100761.19
2022-11-30T03:19:51.562Z,100750.00
2022-11-30T03:22:53.319Z,100757.75
2022-11-30T03:25:57.558Z,100761.81
2022-11-30T03:28:59.246Z,100763.25
2022-11-30T03:32:02.343Z,100766.81
2022-11-30T03:35:04.597Z,100770.34
2022-11-30T03:38:06.385Z,100764.94
2022-11-30T03:41:10.898Z,100763.81
2022-11-30T03:44:12.562Z,100762.84
2022-11-30T03:47:15.550Z,100770.91
2022-11-30T03:50:17.348Z,100752.03
2022-11-30T03:53:20.722Z,100762.72
2022-11-30T03:56:22.530Z,100761.72
2022-11-30T03:59:42.856Z,100760.63
2022-11-30T04:02:45.996Z,100763.59
2022-11-30T04:05:47.770Z,100767.53
2022-11-30T04:08:49.753Z,100769.94
2022-11-30T04:11:51.529Z,100777.72
2022-11-30T04:14:53.152Z,100773.28
2022-11-30T04:17:56.427Z,100774.16
2022-11-30T04:20:59.957Z,100774.59
2022-11-30T04:24:01.875Z,100766.88
2022-11-30T04:27:03.540Z,100764.28
2022-11-30T04:30:06.720Z,100768.19
2022-11-30T04:33:10.554Z,100771.88
2022-11-30T04:36:19.586Z,100769.72
2022-11-30T04:39:21.243Z,100767.97
2022-11-30T04:42:23.030Z,100769.78
2022-11-30T04:45:24.610Z,100769.78
2022-11-30T04:48:27.727Z,100770.34
2022-11-30T04:51:29.391Z,100770.75
2022-11-30T04:54:31.239Z,100762.72
2022-11-30T04:57:32.920Z,100763.28
2022-11-30T05:00:35.480Z,100771.69
2022-11-30T05:03:38.514Z,100772.63
2022-11-30T05:06:40.235Z,100775.81
2022-11-30T05:09:41.871Z,100772.84
2022-11-30T05:12:43.587Z,100770.06
2022-11-30T05:15:45.706Z,100781.66
2022-11-30T05:18:48.782Z,100786.34
2022-11-30T05:21:50.507Z,100784.59
2022-11-30T05:24:52.271Z,100779.19
2022-11-30T05:27:54.104Z,100778.41
2022-11-30T05:30:55.821Z,100773.97
2022-11-30T05:33:59.314Z,100781.03
2022-11-30T05:37:01.226Z,100781.28
2022-11-30T05:40:03.080Z,100780.56
2022-11-30T05:43:05.530Z,100783.34
2022-11-30T05:46:08.850Z,100783.19
2022-11-30T05:49:11.910Z,100786.19
2022-11-30T05:52:13.660Z,100786.53
2022-11-30T05:55:16.070Z,100782.03
2022-11-30T05:58:17.895Z,100785.78
2022-11-30T06:01:21.370Z,100788.78
2022-11-30T06:04:24.656Z,100788.97
2022-11-30T06:07:26.356Z,100791.41
2022-11-30T06:10:28.205Z,100793.09
2022-11-30T06:13:32.469Z,100793.28
2022-11-30T06:16:34.476Z,100800.72
2022-11-30T06:19:37.566Z,100798.84
2022-11-30T06:22:39.235Z,100807.97
2022-11-30T06:25:40.872Z,100799.97
2022-11-30T06:28:46.719Z,100803.28
2022-11-30T06:31:50.124Z,100803.09
2022-11-30T06:34:53.434Z,100801.75
2022-11-30T06:37:55.209Z,100799.88
2022-11-30T06:41:03.626Z,100802.53
2022-11-30T06:44:08.157Z,100802.94
2022-11-30T06:47:09.804Z,100802.53
2022-11-30T06:50:14.141Z,100802.53
2022-11-30T06:53:15.802Z,100804.59
2022-11-30T06:56:17.593Z,100808.91
2022-11-30T06:59:19.204Z,100801.84
2022-11-30T07:02:20.982Z,100811.16
2022-11-30T07:05:24.055Z,100806.28
2022-11-30T07:08:25.971Z,100808.91
2022-11-30T07:11:27.788Z,100807.06
2022-11-30T07:14:30.892Z,100811.72
2022-11-30T07:17:32.553Z,100815.63
2022-11-30T07:20:35.611Z,100817.50
2022-11-30T07:23:57.219Z,100815.19
2022-11-30T07:26:59.975Z,100811.69
2022-11-30T07:30:01.897Z,100811.19
2022-11-30T07:33:03.729Z,100810.03
2022-11-30T07:36:07.498Z,100817.16
2022-11-30T07:39:09.228Z,100816.72
2022-11-30T07:42:10.944Z,100816.00
2022-11-30T07:45:12.711Z,100815.59
2022-11-30T07:48:14.434Z,100815.38
2022-11-30T07:51:19.925Z,100817.13
2022-11-30T07:54:21.721Z,100819.75
2022-11-30T07:57:23.532Z,100820.69
2022-11-30T08:00:25.375Z,100835.25
2022-11-30T08:03:29.294Z,100834.44
2022-11-30T08:06:35.388Z,100836.31
2022-11-30T08:09:37.152Z,100841.00
2022-11-30T08:12:38.822Z,100835.56
2022-11-30T08:15:40.530Z,100838.00
2022-11-30T08:18:43.261Z,100846.81
2022-11-30T08:21:46.310Z,100843.81
2022-11-30T08:24:48.266Z,100857.41
2022-11-30T08:27:50.237Z,100852.03
2022-11-30T08:30:52.071Z,100852.59
2022-11-30T08:33:58.281Z,100855.69
2022-11-30T08:37:01.343Z,100857.56
2022-11-30T08:40:03.707Z,100861.13
2022-11-30T08:43:05.357Z,100863.13
2022-11-30T08:46:34.569Z,100864.09
2022-11-30T08:49:30.946Z,100861.25
2022-11-30T08:52:33.941Z,100865.78
2022-11-30T08:55:35.640Z,100873.97
2022-11-30T08:58:39.294Z,100873.22
2022-11-30T09:01:42.570Z,100877.47
2022-11-30T09:04:44.652Z,100877.97
2022-11-30T09:07:47.732Z,100885.19
2022-11-30T09:10:49.472Z,100882.69
2022-11-30T09:13:53.559Z,100883.69
2022-11-30T09:16:55.355Z,100873.19
2022-11-30T09:19:57.207Z,100885.13
2022-11-30T09:23:00.845Z,100870.34
2022-11-30T09:26:05.990Z,100878.53
2022-11-30T09:29:07.738Z,100883.75
2022-11-30T09:32:09.584Z,100888.88
2022-11-30T09:35:12.919Z,100883.84
2022-11-30T09:38:16.345Z,100885.13
2022-11-30T09:41:48.120Z,100891.91
2022-11-30T09:44:58.802Z,100890.00
2022-11-30T09:48:25.526Z,100894.78
2022-11-30T09:51:36.303Z,100881.84
2022-11-30T09:54:42.526Z,100879.66
2022-11-30T09:57:47.319Z,100876.28
2022-11-30T10:00:49.029Z,100878.50
2022-11-30T10:03:50.821Z,100884.94
2022-11-30T10:07:02.562Z,100881.41
2022-11-30T10:10:31.772Z,100877.69
2022-11-30T10:13:51.324Z,100870.88
2022-11-30T10:17:01.330Z,100871.69
2022-11-30T10:20:16.073Z,100879.38
2022-11-30T10:23:39.653Z,100878.50
2022-11-30T10:26:52.898Z,100875.72
2022-11-30T10:29:55.500Z,100874.88
2022-11-30T10:33:05.221Z,100870.41
2022-11-30T10:36:13.572Z,100875.38
2022-11-30T10:39:21.691Z,100863.25
2022-11-30T10:42:30.854Z,100864.09
2022-11-30T10:45:33.991Z,100866.75
2022-11-30T10:48:43.175Z,100861.34
2022-11-30T10:51:53.334Z,100854.59
2022-11-30T10:55:02.193Z,100851.34
2022-11-30T10:58:22.524Z,100853.22
2022-11-30T11:01:33.892Z,100853.22
2022-11-30T11:04:35.670Z,100843.03
2022-11-30T11:07:48.086Z,100839.63
2022-11-30T11:10:51.494Z,100844.22
2022-11-30T11:14:08.953Z,100838.75
2022-11-30T11:17:22.867Z,100841.78
2022-11-30T11:20:31.265Z,100839.06
2022-11-30T11:23:35.859Z,100847.81
2022-11-30T11:26:37.700Z,100839.63
2022-11-30T11:29:40.894Z,100834.31
2022-11-30T11:32:57.910Z,100833.69
2022-11-30T11:36:14.387Z,100825.22
2022-11-30T11:39:25.874Z,100828.72
2022-11-30T11:42:30.829Z,100826.16
2022-11-30T11:45:37.627Z,100827.28
2022-11-30T11:48:41.885Z,100828.31
2022-11-30T11:51:45.597Z,100832.09
2022-11-30T11:54:51.397Z,100829.97
2022-11-30T11:57:56.168Z,100834.13
2022-11-30T12:01:31.452Z,100831.09
2022-11-30T12:04:42.556Z,100838.53
2022-11-30T12:07:57.564Z,100835.41
2022-11-30T12:11:02.876Z,100839.69
2022-11-30T12:14:12.473Z,100834.56
2022-11-30T12:17:34.694Z,100837.13
2022-11-30T12:20:49.345Z,100836.59
2022-11-30T12:24:29.602Z,100848.59
2022-11-30T12:27:42.535Z,100839.19
2022-11-30T12:31:12.207Z,100830.09
2022-11-30T12:34:25.496Z,100832.94
2022-11-30T12:37:43.018Z,100833.13
2022-11-30T12:40:58.989Z,100840.47
2022-11-30T12:44:15.711Z,100831.34
2022-11-30T12:47:31.873Z,100836.09
2022-11-30T12:50:45.751Z,100831.25
2022-11-30T12:53:55.770Z,100834.50
2022-11-30T12:57:05.925Z,100837.00
2022-11-30T13:00:13.739Z,100832.72
2022-11-30T13:03:46.957Z,100830.25
2022-11-30T13:06:55.888Z,100831.44
2022-11-30T13:10:02.424Z,100831.53
2022-11-30T13:13:06.278Z,100834.47
2022-11-30T13:16:09.382Z,100850.63
2022-11-30T13:19:29.561Z,100829.09
2022-11-30T13:22:45.360Z,100840.78
2022-11-30T13:26:10.151Z,100836.16
2022-11-30T13:29:27.560Z,100834.59
2022-11-30T13:35:55.144Z,100837.69
2022-11-30T13:39:26.204Z,100844.44
2022-11-30T13:42:43.007Z,100836.56
2022-11-30T13:45:47.985Z,100844.69
2022-11-30T13:49:08.778Z,100850.34
2022-11-30T13:52:27.958Z,100852.66
2022-11-30T13:55:56.701Z,100843.66
2022-11-30T13:59:44.428Z,100848.75
2022-11-30T14:02:54.065Z,100843.97
2022-11-30T14:05:56.723Z,100845.47
2022-11-30T14:08:58.456Z,100853.41
2022-11-30T14:12:54.572Z,100847.44
2022-11-30T14:15:59.731Z,100845.91
2022-11-30T14:19:05.419Z,100848.44
2022-11-30T14:22:11.735Z,100853.00
2022-11-30T14:25:16.399Z,100862.25
2022-11-30T14:28:23.460Z,100866.59
2022-11-30T14:31:29.206Z,100862.22
2022-11-30T14:34:36.368Z,100861.56
2022-11-30T14:37:43.380Z,100865.78
2022-11-30T14:40:50.416Z,100868.44
2022-11-30T14:44:01.885Z,100863.03
2022-11-30T14:47:14.555Z,100862.16
2022-11-30T14:50:23.718Z,100864.19
2022-11-30T14:53:35.992Z,100858.28
2022-11-30T14:56:44.644Z,100862.41
2022-11-30T14:59:50.806Z,100860.41
2022-11-30T15:02:52.931Z,100859.59
2022-11-30T15:05:57.344Z,100847.50
2022-11-30T15:09:01.383Z,100860.50
2022-11-30T15:12:03.405Z,100867.22
2022-11-30T15:15:14.699Z,100868.97
2022-11-30T15:33:34.551Z,100874.47
2022-11-30T15:36:38.390Z,100874.94
2022-11-30T15:39:44.700Z,100878.81
2022-11-30T15:42:49.128Z,100874.00
2022-11-30T15:45:53.987Z,100882.97
2022-11-30T15:49:06.929Z,100881.16
2022-11-30T15:52:17.239Z,100874.94
2022-11-30T15:55:40.408Z,100872.31
2022-11-30T15:58:59.012Z,100877.91
2022-11-30T16:02:04.841Z,100882.84
2022-11-30T16:05:24.412Z,100888.66
2022-11-30T16:08:26.963Z,100880.06
2022-11-30T16:11:28.859Z,100882.13
2022-11-30T16:14:30.626Z,100885.00
2022-11-30T16:17:32.912Z,100887.03
2022-11-30T16:20:36.015Z,100888.28
2022-11-30T16:23:38.160Z,100898.66
2022-11-30T16:26:55.377Z,100901.06
2022-11-30T16:29:57.172Z,100905.91
2022-11-30T16:32:59.570Z,100905.13
2022-11-30T16:36:08.140Z,100910.75
2022-11-30T16:39:12.216Z,100893.53
2022-11-30T16:42:14.164Z,100892.25
2022-11-30T16:45:19.552Z,100904.25
2022-11-30T16:48:21.407Z,100902.19
2022-11-30T16:51:27.399Z,100915.44
2022-11-30T16:54:29.310Z,100905.84
2022-11-30T16:57:31.075Z,100908.03
2022-11-30T17:00:33.481Z,100907.63
2022-11-30T17:03:35.937Z,100921.69
2022-11-30T17:06:38.955Z,100929.91
2022-11-30T17:09:40.740Z,100924.16
2022-11-30T17:12:42.601Z,100929.38
2022-11-30T17:15:45.063Z,100936.66
2022-11-30T17:18:46.903Z,100937.94
2022-11-30T17:21:50.798Z,100937.56
2022-11-30T17:24:52.553Z,100942.03
2022-11-30T17:27:54.346Z,100929.69
2022-11-30T17:30:56.205Z,100933.81
2022-11-30T17:33:57.965Z,100931.56
2022-11-30T17:37:01.164Z,100938.53
2022-11-30T17:40:04.099Z,100932.03
2022-11-30T17:43:05.777Z,100934.28
2022-11-30T17:46:09.843Z,100941.94
2022-11-30T17:49:11.863Z,100940.97
2022-11-30T17:52:15.018Z,100939.13
2022-11-30T17:55:16.929Z,100941.56
2022-11-30T17:58:18.586Z,100947.09
2022-11-30T18:01:22.478Z,100944.31
2022-11-30T18:04:24.764Z,100940.03
2022-11-30T18:07:28.098Z,100936.88
2022-11-30T18:10:29.878Z,100948.97
2022-11-30T18:13:31.670Z,100942.47
2022-11-30T18:16:38.402Z,100942.84
2022-11-30T18:19:40.515Z,100938.72
2022-11-30T18:22:43.730Z,100946.72
2022-11-30T18:25:45.581Z,100952.72
2022-11-30T18:28:51.349Z,100951.44
2022-11-30T18:31:53.302Z,100955.53
2022-11-30T18:34:55.235Z,100960.97
2022-11-30T18:37:58.654Z,100955.59
2022-11-30T18:41:00.537Z,100952.22
2022-11-30T18:44:02.381Z,100957.25
2022-11-30T18:47:04.346Z,100953.47
2022-11-30T18:50:07.118Z,100963.56
2022-11-30T18:53:13.857Z,100964.09
2022-11-30T18:56:20.881Z,100964.47
2022-11-30T18:59:22.630Z,100960.94
2022-11-30T19:02:24.368Z,100969.91
2022-11-30T19:05:32.042Z,100971.94
2022-11-30T19:08:35.411Z,100971.41
2022-11-30T19:11:38.311Z,100971.75
2022-11-30T19:14:42.761Z,100976.47
2022-11-30T19:17:44.397Z,100982.41
2022-11-30T19:20:46.465Z,100982.41
2022-11-30T19:23:50.060Z,100979.25
2022-11-30T19:26:51.746Z,100978.66
2022-11-30T19:29:53.444Z,100977.00
2022-11-30T19:32:55.122Z,100989.88
2022-11-30T19:36:01.037Z,100990.59
2022-11-30T19:39:04.093Z,100988.75
2022-11-30T19:42:07.120Z,100992.47
2022-11-30T19:45:09.671Z,100990.44
2022-11-30T19:48:11.442Z,101000.84
2022-11-30T19:51:18.106Z,101003.47
2022-11-30T19:54:21.713Z,101002.00
2022-11-30T19:57:23.352Z,101005.34
2022-11-30T20:00:25.186Z,101007.59
2022-11-30T20:03:26.925Z,101008.13
2022-11-30T20:06:32.396Z,101017.09
2022-11-30T20:09:35.676Z,101017.88
2022-11-30T20:12:37.361Z,101019.50
2022-11-30T20:15:39.623Z,101008.53
2022-11-30T20:18:45.953Z,101011.88
2022-11-30T20:21:48.270Z,101018.97
2022-11-30T20:24:51.326Z,101015.25
2022-11-30T20:27:53.067Z,101026.41
2022-11-30T20:30:55.327Z,101024.75
2022-11-30T20:33:57.931Z,101033.88
2022-11-30T20:36:59.646Z,101033.13
2022-11-30T20:40:02.785Z,101027.34
2022-11-30T20:43:04.681Z,101024.75
2022-11-30T20:46:14.069Z,101029.00
2022-11-30T20:49:17.878Z,101030.13
2022-11-30T20:52:19.684Z,101029.75
2022-11-30T20:55:23.505Z,101024.16
2022-11-30T20:58:25.494Z,101028.28
2022-11-30T21:01:28.029Z,101026.97
2022-11-30T21:04:29.875Z,101029.56
2022-11-30T21:07:31.647Z,101019.69
2022-11-30T21:10:38.683Z,101023.06
2022-11-30T21:13:41.923Z,101032.19
2022-11-30T21:16:44.111Z,101028.88
2022-11-30T21:19:45.974Z,101033.13
2022-11-30T21:22:47.724Z,101026.97
2022-11-30T21:25:50.759Z,101033.13
2022-11-30T21:28:54.460Z,101032.75
2022-11-30T21:31:56.550Z,101040.22
2022-11-30T21:34:58.409Z,101036.09
2022-11-30T21:38:00.224Z,101049.88
2022-11-30T21:41:04.703Z,101047.50
2022-11-30T21:44:09.675Z,101042.84
2022-11-30T21:47:13.653Z,101042.84
2022-11-30T21:50:15.456Z,101049.53
2022-11-30T21:53:17.218Z,101046.72
2022-11-30T21:56:22.588Z,101042.44
2022-11-30T21:59:24.350Z,101046.00
2022-11-30T22:02:26.183Z,101039.81
2022-11-30T22:05:27.912Z,101033.50
2022-11-30T22:08:30.444Z,101033.91
2022-11-30T22:11:34.851Z,101044.69
2022-11-30T22:14:36.581Z,101044.66
2022-11-30T22:17:38.249Z,101046.91
2022-11-30T22:20:39.879Z,101043.56
2022-11-30T22:23:44.009Z,101046.19
2022-11-30T22:26:49.015Z,101058.28
2022-11-30T22:29:51.392Z,101046.91
2022-11-30T22:32:53.121Z,101047.84
2022-11-30T22:35:54.751Z,101047.09
2022-11-30T22:38:58.621Z,101056.97
2022-11-30T22:42:01.655Z,101057.34
2022-11-30T22:45:03.756Z,101050.06
2022-11-30T22:48:05.841Z,101043.94
2022-11-30T22:51:09.701Z,101046.00
2022-11-30T22:54:11.729Z,101045.41
2022-11-30T22:57:14.754Z,101035.56
2022-11-30T23:00:16.998Z,101044.13
2022-11-30T23:03:18.821Z,101043.72
2022-11-30T23:06:21.209Z,101036.84
2022-11-30T23:09:25.523Z,101037.94
2022-11-30T23:12:57.357Z,101038.09
2022-11-30T23:15:50.798Z,101031.81
2022-11-30T23:18:55.388Z,101040.56
2022-11-30T23:21:57.019Z,101037.13
2022-11-30T23:24:58.831Z,101028.59
2022-11-30T23:28:01.951Z,101037.56
2022-11-30T23:31:03.801Z,101035.16
2022-11-30T23:34:07.652Z,101041.84
2022-11-30T23:37:09.339Z,101034.31
2022-11-30T23:40:12.129Z,101032.63
2022-11-30T23:43:15.192Z,101026.31
2022-11-30T23:46:17.306Z,101026.69
2022-11-30T23:49:19.019Z,101025.59
2022-11-30T23:52:20.678Z,101020.38
2022-11-30T23:55:22.369Z,101019.81
2022-11-30T23:58:25.345Z,101017.38
